• Join FlightAware (Why Join?)
  • Login
  • US Flag 
12:55AM EST


 

Airport Tracker/Info


-or-


 

Live Flight TrackerFlight Track Log ✈ EJM214 ✈ 15-Oct-2013 ✈ KLSE - KDSM

Flight Track Log - Related Links

Times and Time Zones

All times are in EDT time to prevent confusion due to time zone crossing. See the EJM214 flight status page for this flight to view local times or setup timezone preferences in your user account.

Time Position Orientation Groundspeed Altitude Reporting Facility
EDT Latitude Longitude Course Direction KTS MPH feet Rate Location/Type
02:05PM 43.8300 -91.2831 217° Southwest 274 315 3,700  Level Minneapolis Center
02:06PM 43.7758 -91.3422 218° Southwest 236 272 9,600 4,200 Climbing Minneapolis Center
02:07PM 43.7208 -91.3967 216° Southwest 255 293 12,500 3,240 Climbing Minneapolis Center
02:08PM 43.6389 -91.4800 216° Southwest 323 372 16,300 3,480 Climbing Minneapolis Center
02:09PM 43.5683 -91.5547 218° Southwest 343 395 19,800 3,240 Climbing Minneapolis Center
02:10PM 43.4789 -91.6844 218° Southwest  Level Estimated
02:10PM 43.4703 -91.6536 216° Southwest 361 415 23,100  Level Minneapolis Center
02:11PM 43.4116 -91.7545 217° Southwest  Level FlightAware Approximate
02:11PM 43.3900 -91.7383 217° Southwest 366 421 24,000  Level Minneapolis Center
02:12PM 43.3061 -91.8228 216° Southwest 374 430 24,000  Level Minneapolis Center
02:13PM 43.2383 -91.8919 217° Southwest 379 436 24,000  Level Minneapolis Center
02:14PM 43.1522 -91.9786 216° Southwest 386 444 24,000  Level Minneapolis Center
02:15PM 43.0833 -92.0464 216° Southwest 385 443 24,000  Level Chicago Center
02:16PM 42.9964 -92.1328 216° Southwest 391 450 24,000  Level Chicago Center
02:17PM 42.8933 -92.2364 216° Southwest 391 450 24,000  Level Chicago Center
02:18PM 42.8067 -92.3225 216° Southwest 391 450 24,000  Level Chicago Center
02:19PM 42.7203 -92.4069 216° Southwest 388 447 24,000  Level Chicago Center
02:20PM 42.6333 -92.4933 216° Southwest 391 450 24,000  Level Chicago Center
02:21PM 42.5469 -92.5792 216° Southwest 390 449 24,000 -60 Level Chicago Center
02:22PM 42.4425 -92.6822 216° Southwest 392 451 23,900 -960 Descending Chicago Center
02:23PM 42.3569 -92.7661 216° Southwest 386 444 22,100 -1,860 Descending Chicago Center
02:24PM 42.2739 -92.8469 216° Southwest 375 432 20,100 -1,980 Descending Chicago Center
02:25PM 42.1944 -92.9256 216° Southwest 362 417 18,100 -1,980 Descending Chicago Center
02:26PM 42.1128 -93.0017 215° Southwest 360 414 16,100 -1,980 Descending Chicago Center
02:27PM 42.0350 -93.0767 216° Southwest 351 404 14,100 -2,160 Descending Chicago Center
02:28PM 41.9394 -93.1450 208° Southwest 333 383 11,700 -2,100 Descending Chicago Center
02:29PM 41.8753 -93.1819 203° Southwest 275 316 10,000 -1,620 Descending Minneapolis Center
02:30PM 41.8450 -93.2094 214° Southwest 283 326 9,500 -1,800 Descending Minneapolis Center
02:30PM 41.8094 -93.2258 199° South 251 289 8,200 -2,040 Descending Minneapolis Center
02:31PM 41.7769 -93.2522 211° Southwest 255 293 7,400 -1,620 Descending Minneapolis Center
02:31PM 41.7475 -93.2667 200° South 248 285 6,600 -1,500 Descending Minneapolis Center
02:32PM 41.7147 -93.2917 210° Southwest 249 287 5,900 -1,620 Descending Minneapolis Center
02:32PM 41.6814 -93.3075 200° South 248 285 5,000 -1,560 Descending Minneapolis Center
02:33PM 41.6481 -93.3336 210° Southwest 245 282 4,300 -1,020 Descending Minneapolis Center
02:33PM 41.6194 -93.3453 197° South 248 285 4,000 -300 Descending Minneapolis Center
02:34PM 41.5861 -93.3739 213° Southwest 246 283 4,000 -300 Level Minneapolis Center
02:35PM 41.5639 -93.3969 218° Southwest 214 246 3,700 -780 Descending Minneapolis Center
02:35PM 41.5442 -93.4281 230° Southwest 216 249 3,200 -600 Descending Minneapolis Center
02:36PM 41.5294 -93.4589 237° Southwest 208 239 3,100 -240 Descending Minneapolis Center
02:36PM 41.5100 -93.4972 236° Southwest 206 237 3,000 -180 Descending Minneapolis Center
02:37PM 41.5078 -93.5369 266° West 170 196 2,900 -240 Descending Minneapolis Center
02:37PM 41.5008 -93.5583 247° West 169 194 2,800 -720 Descending Minneapolis Center
02:38PM 41.5064 -93.5869 285° West 121 139 2,200 -720 Descending Minneapolis Center
02:38PM 41.5019 -93.6061 253° West 135 155 2,100 -720 Descending Minneapolis Center
02:39PM 41.5236 -93.6228 330° Northwest 112 129 1,500 -900 Descending Minneapolis Center
02:39PM 41.5239 -93.6422 271° West 118 136 1,200 -420 Descending Minneapolis Center
02:40PM 41.5433 -93.6694 314° West 116 133 1,000 -240 Descending Minneapolis Center